Time;durP1;ratioP1;P1;durP2;ratioP2;P2;SDS_P1;SDS_P2;PMS_P1;PMS_P2;Temp;Humidity;BMP_temperature;BMP_pressure;BME280_temperature;BME280_humidity;BME280_pressure;Samples;Min_cycle;Max_cycle;Signal;HPM_P1;HPM_P2
2022/04/10 00:00:43;;;;;;;25.48;3.38;;;;;;;1.48;100.00;101620.94;5054740;28;20108;-69
2022/04/10 00:03:09;;;;;;;20.70;3.65;;;;;;;1.47;100.00;101621.78;5038335;28;20110;-69
2022/04/10 00:05:35;;;;;;;18.15;3.38;;;;;;;1.45;100.00;101620.91;5072486;28;20033;-69
2022/04/10 00:08:00;;;;;;;18.05;3.17;;;;;;;1.45;100.00;101626.13;5037756;28;20032;-69
2022/04/10 00:10:26;;;;;;;16.60;3.08;;;;;;;1.42;100.00;101632.19;5054516;28;20127;-68
2022/04/10 00:12:51;;;;;;;21.92;3.03;;;;;;;1.40;100.00;101630.44;5072758;28;20037;-69
2022/04/10 00:15:17;;;;;;;16.52;3.10;;;;;;;1.37;100.00;101636.53;5072739;28;20099;-68
2022/04/10 00:17:43;;;;;;;13.75;2.90;;;;;;;1.34;100.00;101633.88;5054323;28;20028;-69
2022/04/10 00:20:11;;;;;;;20.58;3.70;;;;;;;1.30;100.00;101633.00;5054597;28;20052;-69
2022/04/10 00:22:44;;;;;;;22.35;3.20;;;;;;;1.30;100.00;101634.75;5054374;28;20016;-69
2022/04/10 00:25:11;;;;;;;21.05;3.58;;;;;;;1.29;100.00;101635.59;5073778;28;20107;-69
2022/04/10 00:27:37;;;;;;;17.60;3.90;;;;;;;1.29;100.00;101635.59;5073531;28;20107;-69
2022/04/10 00:30:03;;;;;;;14.52;2.97;;;;;;;1.28;100.00;101634.72;5073723;28;20115;-69
2022/04/10 00:32:28;;;;;;;15.38;3.33;;;;;;;1.26;100.00;101630.38;5071433;28;20077;-69
2022/04/10 00:34:54;;;;;;;15.43;2.95;;;;;;;1.25;100.00;101628.63;5072062;28;20035;-69
2022/04/10 00:37:19;;;;;;;22.23;3.08;;;;;;;1.24;100.00;101626.88;5072503;28;20028;-68
2022/04/10 00:39:45;;;;;;;15.05;2.88;;;;;;;1.23;100.00;101626.00;5072510;28;20040;-69
2022/04/10 00:42:11;;;;;;;13.85;2.70;;;;;;;1.19;100.00;101619.91;5072963;28;20107;-69
2022/04/10 00:44:36;;;;;;;15.32;2.97;;;;;;;1.16;100.00;101617.28;5072236;28;20044;-69
2022/04/10 00:47:02;;;;;;;14.35;2.83;;;;;;;1.15;100.00;101612.91;5038589;28;20111;-69
2022/04/10 00:49:27;;;;;;;16.60;2.90;;;;;;;1.13;100.00;101625.06;5053727;28;20040;-69
2022/04/10 00:51:55;;;;;;;13.27;2.63;;;;;;;1.12;100.00;101615.50;5071738;28;20056;-69
2022/04/10 00:54:26;;;;;;;14.23;2.85;;;;;;;1.10;100.00;101619.84;5071808;28;20044;-69
2022/04/10 00:56:53;;;;;;;16.30;3.58;;;;;;;1.06;100.00;101613.75;5054314;28;20044;-69
2022/04/10 00:59:18;;;;;;;13.55;3.35;;;;;;;1.07;100.00;101615.47;5053760;28;20020;-69
2022/04/10 01:01:45;;;;;;;11.20;2.90;;;;;;;1.07;100.00;101614.59;5053786;28;20039;-67
2022/04/10 01:04:16;;;;;;;9.73;2.45;;;;;;;1.05;100.00;101613.72;5037523;28;20040;-67
2022/04/10 01:06:42;;;;;;;13.02;2.97;;;;;;;1.05;100.00;101611.13;5071421;28;20028;-69
2022/04/10 01:09:08;;;;;;;20.08;3.00;;;;;;;1.02;100.00;101617.19;5053641;28;20035;-69
2022/04/10 01:11:34;;;;;;;17.33;3.53;;;;;;;1.01;100.00;101619.75;5053542;28;20028;-68
2022/04/10 01:14:01;;;;;;;15.23;2.70;;;;;;;1.00;100.00;101623.25;5071786;28;20103;-69
2022/04/10 01:16:27;;;;;;;17.63;2.75;;;;;;;0.98;100.00;101617.16;5053823;28;20032;-69
2022/04/10 01:18:53;;;;;;;16.85;3.65;;;;;;;0.97;100.00;101629.31;5072174;28;20165;-69
2022/04/10 01:21:23;;;;;;;14.45;2.78;;;;;;;0.98;100.00;101622.38;5037870;28;20033;-69
2022/04/10 01:23:50;;;;;;;15.90;2.65;;;;;;;0.95;100.00;101620.59;5072307;28;20027;-69
2022/04/10 01:26:15;;;;;;;14.60;2.85;;;;;;;0.93;100.00;101628.41;5054334;28;20460;-69
2022/04/10 01:29:04;;;;;;;16.85;2.75;;;;;;;0.92;100.00;101628.38;5054049;28;20037;-69
2022/04/10 01:31:32;;;;;;;15.25;2.65;;;;;;;0.89;100.00;101629.28;5071763;28;20111;-68
2022/04/10 01:34:00;;;;;;;12.70;2.75;;;;;;;0.86;100.00;101637.06;5053774;28;20024;-69
2022/04/10 01:36:28;;;;;;;13.73;2.60;;;;;;;0.84;100.00;101633.56;5071972;28;20073;-68
2022/04/10 01:38:57;;;;;;;15.73;2.85;;;;;;;0.84;100.00;101625.75;5071748;28;20028;-69
2022/04/10 01:41:25;;;;;;;14.73;2.70;;;;;;;0.84;100.00;101636.19;5053529;28;20051;-68
2022/04/10 01:43:51;;;;;;;13.75;3.00;;;;;;;0.85;100.00;101643.13;5036351;28;20383;-68
2022/04/10 01:46:18;;;;;;;19.35;3.10;;;;;;;0.86;100.00;101649.22;5053044;28;20048;-69
2022/04/10 01:48:44;;;;;;;15.50;2.95;;;;;;;0.87;100.00;101646.63;5070457;28;20036;-68
2022/04/10 01:51:09;;;;;;;16.80;2.67;;;;;;;0.89;100.00;101641.41;5052941;28;20132;-68
2022/04/10 01:53:35;;;;;;;14.25;2.60;;;;;;;0.90;100.00;101643.16;5052703;28;20364;-67
2022/04/10 01:56:02;;;;;;;16.52;2.88;;;;;;;0.91;100.00;101645.78;5070606;28;20199;-67
2022/04/10 01:58:29;;;;;;;14.98;2.72;;;;;;;0.92;100.00;101641.44;5052535;28;20063;-67
2022/04/10 02:00:55;;;;;;;13.23;2.78;;;;;;;0.92;100.00;101639.72;5052545;28;20020;-68
2022/04/10 02:03:20;;;;;;;15.73;2.80;;;;;;;0.93;100.00;101632.78;5035691;28;20581;-68
2022/04/10 02:05:46;;;;;;;16.75;2.90;;;;;;;0.93;100.00;101638.84;5070471;28;20044;-68
2022/04/10 02:08:13;;;;;;;10.50;2.70;;;;;;;0.91;100.00;101637.09;5070397;28;20071;-68
2022/04/10 02:10:39;;;;;;;16.15;2.45;;;;;;;0.87;100.00;101643.16;5070298;28;20085;-68
2022/04/10 02:13:05;;;;;;;13.55;2.70;;;;;;;0.82;100.00;101640.50;5070335;28;20456;-68
2022/04/10 02:15:31;;;;;;;12.05;2.40;;;;;;;0.75;100.00;101641.28;5070275;28;20099;-68
2022/04/10 02:17:56;;;;;;;21.92;3.20;;;;;;;0.70;100.00;101641.25;5070486;28;20414;-68
2022/04/10 02:20:22;;;;;;;10.05;2.25;;;;;;;0.66;100.00;101642.97;5070100;28;20036;-67
2022/04/10 02:22:47;;;;;;;13.88;2.58;;;;;;;0.64;100.00;101647.31;5070140;28;20032;-67
2022/04/10 02:25:13;;;;;;;13.02;2.63;;;;;;;0.65;100.00;101643.84;5070035;28;20027;-68
2022/04/10 02:27:38;;;;;;;15.68;2.92;;;;;;;0.65;100.00;101643.84;5062243;28;20043;-68
2022/04/10 02:30:04;;;;;;;11.27;2.72;;;;;;;0.69;100.00;101649.09;5069013;28;20082;-67
2022/04/10 02:32:30;;;;;;;12.57;2.60;;;;;;;0.71;100.00;101644.75;5068911;28;20025;-67
2022/04/10 02:34:56;;;;;;;18.73;2.70;;;;;;;0.77;100.00;101652.63;5070766;28;20537;-67
2022/04/10 02:37:21;;;;;;;16.05;2.50;;;;;;;0.83;100.00;101650.06;5070400;28;20020;-67
2022/04/10 02:39:47;;;;;;;11.77;2.83;;;;;;;0.90;100.00;101653.59;5070381;28;20017;-68
2022/04/10 02:42:12;;;;;;;16.63;2.83;;;;;;;0.96;100.00;101665.81;5052510;28;20047;-68
2022/04/10 02:44:38;;;;;;;10.07;2.30;;;;;;;1.05;100.00;101697.19;5070100;28;20107;-68
2022/04/10 02:47:04;;;;;;;10.80;2.42;;;;;;;1.10;100.00;101692.88;5070216;28;20047;-68
2022/04/10 02:49:29;;;;;;;10.13;1.70;;;;;;;1.03;100.00;101691.94;5070631;28;20036;-67
2022/04/10 02:51:55;;;;;;;6.18;1.50;;;;;;;1.00;100.00;101689.31;5069847;28;20040;-67
2022/04/10 02:54:20;;;;;;;3.50;1.60;;;;;;;0.99;100.00;101684.09;5069985;28;20292;-68
2022/04/10 02:56:46;;;;;;;7.32;1.67;;;;;;;0.96;100.00;101678.88;5037074;28;20032;-68
2022/04/10 02:59:11;;;;;;;8.43;1.77;;;;;;;0.95;100.00;101683.19;5053206;28;20028;-67
2022/04/10 03:01:37;;;;;;;6.15;1.92;;;;;;;0.97;100.00;101680.59;5070387;28;20112;-68
2022/04/10 03:04:02;;;;;;;2.90;1.58;;;;;;;0.97;100.00;101691.03;5071428;28;20032;-68
2022/04/10 03:06:29;;;;;;;6.20;1.85;;;;;;;0.97;100.00;101702.31;5052319;28;20020;-69
2022/04/10 03:08:55;;;;;;;3.83;1.35;;;;;;;0.99;100.00;101705.84;5052226;28;20475;-69
2022/04/10 03:11:20;;;;;;;8.18;1.50;;;;;;;1.00;100.00;101704.97;5052418;28;20058;-69
2022/04/10 03:13:46;;;;;;;6.10;1.60;;;;;;;1.03;100.00;101691.94;5072942;28;20035;-68
2022/04/10 03:16:12;;;;;;;6.47;1.60;;;;;;;1.07;100.00;101688.50;5074041;28;20116;-68
2022/04/10 03:18:37;;;;;;;6.47;1.80;;;;;;;1.12;100.00;101691.16;5074091;28;20475;-68
2022/04/10 03:21:04;;;;;;;6.50;1.88;;;;;;;1.16;100.00;101686.81;5074595;28;20034;-68
2022/04/10 03:23:29;;;;;;;8.27;1.67;;;;;;;1.19;100.00;101686.84;5074407;28;20429;-68
2022/04/10 03:25:55;;;;;;;9.02;2.20;;;;;;;1.21;100.00;101693.81;5074218;28;20028;-69
2022/04/10 03:28:21;;;;;;;6.50;1.77;;;;;;;1.22;100.00;101690.34;5074306;28;20037;-69
2022/04/10 03:30:46;;;;;;;7.65;2.05;;;;;;;1.23;100.00;101683.41;5073764;28;20165;-69
2022/04/10 03:33:12;;;;;;;9.55;1.80;;;;;;;1.24;100.00;101684.28;5073436;28;20119;-69
2022/04/10 03:35:38;;;;;;;5.43;2.10;;;;;;;1.21;100.00;101688.59;5054903;28;20464;-69
2022/04/10 03:38:04;;;;;;;10.77;2.05;;;;;;;1.19;100.00;101689.44;5055344;28;20031;-69
2022/04/10 03:40:30;;;;;;;9.88;2.45;;;;;;;1.18;100.00;101683.38;5073129;28;20479;-69
2022/04/10 03:42:55;;;;;;;14.38;2.80;;;;;;;1.17;100.00;101689.47;5055429;28;20025;-69
2022/04/10 03:45:21;;;;;;;14.75;2.80;;;;;;;1.18;100.00;101690.31;5073589;28;20051;-69
2022/04/10 03:47:47;;;;;;;12.88;2.42;;;;;;;1.14;100.00;101692.03;5056111;28;20033;-69
2022/04/10 03:50:13;;;;;;;10.23;2.28;;;;;;;1.12;100.00;101693.75;5052162;28;20056;-69
2022/04/10 03:52:39;;;;;;;11.05;2.25;;;;;;;1.12;100.00;101696.38;5052638;28;20502;-70
2022/04/10 03:55:05;;;;;;;10.00;2.35;;;;;;;1.12;100.00;101703.31;5053237;28;20396;-69
2022/04/10 03:57:30;;;;;;;13.15;2.00;;;;;;;1.10;100.00;101718.97;5052225;28;20248;-69
2022/04/10 03:59:56;;;;;;;10.40;2.60;;;;;;;1.09;100.00;101711.97;5052165;28;20044;-69
2022/04/10 04:02:24;;;;;;;9.38;2.47;;;;;;;1.08;100.00;101725.88;5053503;28;20029;-69
2022/04/10 04:04:50;;;;;;;15.27;3.08;;;;;;;1.05;100.00;101721.50;5052428;28;20091;-69
2022/04/10 04:07:16;;;;;;;12.13;2.50;;;;;;;1.04;100.00;101729.34;5052150;28;20021;-69
2022/04/10 04:09:42;;;;;;;8.70;2.10;;;;;;;1.03;100.00;101727.59;5053263;28;20051;-69
2022/04/10 04:12:08;;;;;;;10.55;2.28;;;;;;;1.01;100.00;101729.31;5053480;28;20542;-69
2022/04/10 04:14:35;;;;;;;10.77;2.25;;;;;;;1.01;100.00;101739.72;5035428;28;20511;-69
2022/04/10 04:17:01;;;;;;;7.10;2.22;;;;;;;1.01;100.00;101745.84;5035529;28;20468;-69
2022/04/10 04:19:26;;;;;;;15.80;2.20;;;;;;;0.98;100.00;101742.34;5051862;28;20067;-69
2022/04/10 04:21:52;;;;;;;9.30;2.28;;;;;;;0.97;100.00;101748.41;5051515;28;20444;-69
2022/04/10 04:24:17;;;;;;;12.18;2.40;;;;;;;0.93;100.00;101745.75;5051285;28;20086;-69
2022/04/10 04:26:43;;;;;;;6.68;2.13;;;;;;;0.90;100.00;101740.53;5053080;28;20037;-69
2022/04/10 04:29:08;;;;;;;13.68;2.83;;;;;;;0.86;100.00;101745.72;5052907;28;20029;-69
2022/04/10 04:31:34;;;;;;;14.60;2.45;;;;;;;0.85;100.00;101750.03;5053007;28;20337;-69
2022/04/10 04:33:59;;;;;;;11.95;2.38;;;;;;;0.84;100.00;101737.88;5052931;28;20041;-69
2022/04/10 04:36:25;;;;;;;10.80;3.15;;;;;;;0.83;100.00;101743.94;5052854;28;20035;-69
2022/04/10 04:38:52;;;;;;;10.60;2.63;;;;;;;0.85;100.00;101762.19;5051826;28;20021;-69
2022/04/10 04:41:18;;;;;;;6.65;2.45;;;;;;;0.84;100.00;101758.72;5051913;28;20067;-69
2022/04/10 04:43:44;;;;;;;10.50;3.00;;;;;;;0.84;100.00;101757.84;5052024;28;20121;-69
2022/04/10 04:46:09;;;;;;;14.77;2.90;;;;;;;0.87;100.00;101763.09;5034742;28;20120;-69
2022/04/10 04:48:35;;;;;;;16.00;3.08;;;;;;;0.89;100.00;101758.75;5035060;28;20380;-69
2022/04/10 04:51:02;;;;;;;12.38;2.60;;;;;;;0.93;100.00;101763.16;5051751;28;20053;-69
2022/04/10 04:53:28;;;;;;;13.85;2.65;;;;;;;0.94;100.00;101763.16;5051517;28;20040;-69
2022/04/10 04:55:53;;;;;;;20.23;2.80;;;;;;;0.96;100.00;101757.09;5052280;28;20098;-69
2022/04/10 04:58:19;;;;;;;13.55;2.30;;;;;;;0.98;100.00;101769.25;5052047;28;20661;-69
2022/04/10 05:00:46;;;;;;;12.25;3.20;;;;;;;0.99;100.00;101762.34;5050371;28;20113;-69
2022/04/10 05:03:11;;;;;;;12.43;2.85;;;;;;;0.99;100.00;101768.44;5050440;28;20475;-69
2022/04/10 05:05:37;;;;;;;13.95;2.83;;;;;;;0.98;100.00;101771.88;5050468;28;20096;-69
2022/04/10 05:08:03;;;;;;;9.02;2.38;;;;;;;0.97;100.00;101771.88;5051868;28;20439;-69
2022/04/10 05:10:29;;;;;;;13.13;3.47;;;;;;;0.98;100.00;101771.88;5051362;28;20064;-69
2022/04/10 05:12:54;;;;;;;9.20;3.25;;;;;;;1.00;100.00;101782.34;5050237;28;20117;-69
2022/04/10 05:15:20;;;;;;;14.82;5.43;;;;;;;1.02;100.00;101781.50;5051127;28;20529;-69
2022/04/10 05:17:45;;;;;;;17.77;6.38;;;;;;;1.05;100.00;101788.47;5051214;28;20056;-69
2022/04/10 05:20:11;;;;;;;17.88;4.30;;;;;;;1.09;100.00;101792.84;5051642;28;20025;-69
2022/04/10 05:22:36;;;;;;;20.48;7.40;;;;;;;1.11;100.00;101793.75;5050176;28;20032;-69
2022/04/10 05:25:02;;;;;;;17.52;3.90;;;;;;;1.20;100.00;101799.03;5051127;28;20032;-69
2022/04/10 05:27:28;;;;;;;12.73;4.25;;;;;;;1.27;100.00;101804.31;5049925;28;20060;-69
2022/04/10 05:29:53;;;;;;;8.70;2.40;;;;;;;1.36;100.00;101817.44;5052045;28;20040;-69
2022/04/10 05:32:18;;;;;;;10.93;2.05;;;;;;;1.45;100.00;101814.03;5051969;28;20033;-70
2022/04/10 05:34:45;;;;;;;7.63;2.05;;;;;;;1.52;100.00;101802.78;5052075;28;20099;-70
2022/04/10 05:37:10;;;;;;;6.10;2.25;;;;;;;1.58;100.00;101801.97;5051142;28;20159;-69
2022/04/10 05:39:38;;;;;;;4.80;2.13;;;;;;;1.61;100.00;101805.47;5052070;28;20111;-69
2022/04/10 05:42:04;;;;;;;10.40;2.30;;;;;;;1.62;100.00;101807.22;5050407;28;20043;-70
2022/04/10 05:44:29;;;;;;;6.80;2.08;;;;;;;1.60;100.00;101808.94;5051718;28;20025;-69
2022/04/10 05:46:55;;;;;;;6.80;1.88;;;;;;;1.59;100.00;101811.53;5049701;28;20033;-69
2022/04/10 05:49:20;;;;;;;8.32;2.13;;;;;;;1.61;100.00;101826.34;5049466;28;20454;-69
2022/04/10 05:51:47;;;;;;;7.40;1.90;;;;;;;1.65;100.00;101826.38;5049902;28;20565;-69
2022/04/10 05:54:14;;;;;;;10.75;2.28;;;;;;;1.69;100.00;101835.97;5016865;28;20102;-69
2022/04/10 05:56:39;;;;;;;9.13;2.47;;;;;;;1.72;100.00;101829.03;5050582;28;20033;-69
2022/04/10 05:59:05;;;;;;;35.60;19.13;;;;;;;1.75;100.00;101833.41;5049649;28;20036;-69
2022/04/10 06:01:30;;;;;;;14.27;7.90;;;;;;;1.79;100.00;101834.31;5050269;28;20064;-69
2022/04/10 06:03:56;;;;;;;9.63;4.90;;;;;;;1.85;100.00;101831.75;5049505;28;20104;-69
2022/04/10 06:06:21;;;;;;;11.35;4.85;;;;;;;1.92;100.00;101840.47;5049594;28;20420;-69
2022/04/10 06:08:47;;;;;;;17.15;5.72;;;;;;;1.95;100.00;101836.16;5051163;28;20512;-69
2022/04/10 06:11:13;;;;;;;15.30;8.27;;;;;;;2.01;100.00;101841.41;5049553;28;20468;-69
2022/04/10 06:13:38;;;;;;;14.90;6.65;;;;;;;2.11;100.00;101846.69;5051250;28;20039;-69
2022/04/10 06:16:04;;;;;;;11.80;3.70;;;;;;;2.20;100.00;101848.50;5032343;28;20031;-69
2022/04/10 06:18:30;;;;;;;10.55;3.63;;;;;;;2.30;100.00;101847.69;5048992;28;20025;-70
2022/04/10 06:20:55;;;;;;;13.95;2.97;;;;;;;2.40;100.00;101849.47;5050653;28;20044;-69
2022/04/10 06:23:23;;;;;;;13.95;2.80;;;;;;;2.51;100.00;101846.91;5049396;28;20025;-69
2022/04/10 06:25:49;;;;;;;8.75;2.42;;;;;;;2.65;100.00;101844.34;5033387;28;20021;-69
2022/04/10 06:28:14;;;;;;;14.63;2.95;;;;;;;2.77;100.00;101845.28;5048663;28;20056;-69
2022/04/10 06:30:40;;;;;;;8.13;2.38;;;;;;;2.85;100.00;101854.00;5016479;28;20079;-69
2022/04/10 06:33:06;;;;;;;14.30;2.47;;;;;;;2.97;100.00;101861.00;5032524;28;20166;-69
2022/04/10 06:35:31;;;;;;;12.25;2.53;;;;;;;3.00;100.00;101858.41;5050481;28;20476;-69
2022/04/10 06:37:57;;;;;;;12.60;2.53;;;;;;;3.03;100.00;101865.38;5049527;28;20035;-69
2022/04/10 06:40:22;;;;;;;13.93;2.88;;;;;;;3.04;100.00;101877.63;5050197;28;20315;-69
2022/04/10 06:42:48;;;;;;;10.45;2.70;;;;;;;3.11;100.00;101874.13;5050751;28;20067;-69
2022/04/10 06:45:13;;;;;;;10.50;2.70;;;;;;;3.24;100.00;101872.41;5048972;28;20025;-69
2022/04/10 06:47:39;;;;;;;10.48;3.08;;;;;;;3.34;100.00;101874.19;5048309;28;20366;-69
2022/04/10 06:50:04;;;;;;;10.25;2.70;;;;;;;3.39;100.00;101875.03;5051581;28;20029;-69
2022/04/10 06:52:35;;;;;;;11.18;2.53;;;;;;;3.59;100.00;101870.72;5069726;28;20091;-69
2022/04/10 06:55:02;;;;;;;9.60;2.80;;;;;;;3.90;100.00;101886.41;5069888;28;20110;-69
2022/04/10 06:57:27;;;;;;;13.73;2.85;;;;;;;4.15;100.00;101886.38;5053034;28;20036;-69
2022/04/10 06:59:53;;;;;;;11.40;2.38;;;;;;;4.23;100.00;101875.88;5052143;28;20044;-70
2022/04/10 07:02:18;;;;;;;11.93;3.03;;;;;;;4.27;100.00;101885.47;5070774;28;20038;-69
2022/04/10 07:04:45;;;;;;;11.20;2.42;;;;;;;4.31;100.00;101892.47;5036525;28;20469;-69
2022/04/10 07:07:11;;;;;;;11.73;2.72;;;;;;;4.34;100.00;101882.84;5069638;28;20031;-69
2022/04/10 07:09:36;;;;;;;10.43;2.33;;;;;;;4.43;100.00;101889.81;5070266;28;20032;-70
2022/04/10 07:12:02;;;;;;;14.45;2.35;;;;;;;4.54;100.00;101894.13;5070809;28;20032;-69
2022/04/10 07:14:27;;;;;;;12.32;2.33;;;;;;;4.58;100.00;101886.25;5069953;28;20034;-67
2022/04/10 07:16:53;;;;;;;9.70;2.30;;;;;;;4.62;100.00;101898.50;5070807;28;20351;-68
2022/04/10 07:19:18;;;;;;;14.00;2.50;;;;;;;4.68;100.00;101902.81;5070309;28;20040;-69
2022/04/10 07:24:28;;;;;;;14.75;2.58;;;;;;;4.93;100.00;101897.50;5071798;28;20037;-68
2022/04/10 07:26:54;;;;;;;9.32;2.17;;;;;;;5.05;100.00;101900.94;5053811;28;20059;-68
2022/04/10 07:29:20;;;;;;;10.32;2.30;;;;;;;5.06;100.00;101900.06;5069968;28;20060;-69
2022/04/10 07:31:46;;;;;;;12.63;2.45;;;;;;;5.06;100.00;101913.19;5069780;28;20382;-68
2022/04/10 07:34:11;;;;;;;12.35;2.30;;;;;;;5.05;100.00;101920.16;5052673;28;20017;-68
2022/04/10 07:36:37;;;;;;;13.73;2.40;;;;;;;5.09;100.00;101923.66;5051458;28;20075;-69
2022/04/10 07:39:03;;;;;;;13.90;2.75;;;;;;;5.16;100.00;101928.88;5051821;28;20023;-69
2022/04/10 07:41:29;;;;;;;14.35;2.30;;;;;;;5.27;100.00;101926.19;5069534;28;20050;-69
2022/04/10 07:43:54;;;;;;;11.25;2.45;;;;;;;5.39;99.65;101927.00;5069982;28;20035;-68
2022/04/10 07:49:04;;;;;;;10.77;2.50;;;;;;;5.55;96.97;101935.63;5068726;28;20355;-68
2022/04/10 07:51:29;;;;;;;9.10;2.30;;;;;;;5.53;95.43;101940.03;5055109;28;20191;-68
2022/04/10 07:53:56;;;;;;;12.10;2.20;;;;;;;5.60;96.27;101943.50;5043755;28;20044;-68
2022/04/10 07:56:23;;;;;;;15.07;2.30;;;;;;;5.73;97.34;101939.91;5023262;28;20057;-69
2022/04/10 07:58:49;;;;;;;11.85;1.90;;;;;;;5.90;94.46;101946.75;5028002;28;20063;-69
2022/04/10 08:01:14;;;;;;;9.05;1.92;;;;;;;5.90;91.84;101952.03;5052818;28;20115;-68
2022/04/10 08:03:40;;;;;;;12.93;2.45;;;;;;;5.77;91.05;101949.47;5054526;28;20189;-68
2022/04/10 08:06:05;;;;;;;15.32;2.20;;;;;;;5.65;90.96;101960.06;5035689;28;20032;-68
2022/04/10 08:08:31;;;;;;;7.43;2.40;;;;;;;5.53;90.91;101966.28;5035733;28;20675;-68
2022/04/10 08:10:57;;;;;;;11.05;2.30;;;;;;;5.42;91.71;101958.47;5035711;28;20048;-68
2022/04/10 08:13:22;;;;;;;10.00;2.25;;;;;;;5.43;91.06;101965.47;5053106;28;20587;-69
2022/04/10 08:15:48;;;;;;;10.68;3.03;;;;;;;5.52;91.49;101969.81;5052895;28;20063;-68
2022/04/10 08:18:14;;;;;;;12.45;2.40;;;;;;;5.70;92.13;101976.69;5052213;28;20035;-68
2022/04/10 08:20:39;;;;;;;10.80;2.25;;;;;;;5.91;92.20;101977.41;5035329;28;20089;-68
2022/04/10 08:23:05;;;;;;;11.23;2.00;;;;;;;6.07;91.40;101978.22;5053447;28;20032;-68
2022/04/10 08:25:31;;;;;;;14.27;2.30;;;;;;;6.17;89.37;101977.25;5054909;28;20037;-68
2022/04/10 08:27:57;;;;;;;10.65;2.25;;;;;;;6.27;87.92;101980.69;5019464;28;20039;-68
2022/04/10 08:30:22;;;;;;;11.15;2.00;;;;;;;6.28;87.72;101992.94;5053901;28;20033;-68
2022/04/10 08:32:48;;;;;;;11.25;1.75;;;;;;;6.30;86.32;101983.25;5054629;28;20024;-68
2022/04/10 08:35:14;;;;;;;16.25;3.20;;;;;;;6.38;86.61;101986.69;5052764;28;20077;-68
2022/04/10 08:37:40;;;;;;;11.80;2.50;;;;;;;6.54;86.48;101983.03;5034989;28;21627;-68
2022/04/10 08:40:06;;;;;;;9.80;1.92;;;;;;;6.74;86.27;101993.34;5052225;28;20751;-69
2022/04/10 08:42:33;;;;;;;9.40;2.42;;;;;;;6.92;87.39;101984.38;5038699;28;20029;-68
2022/04/10 08:44:59;;;;;;;12.70;2.75;;;;;;;7.03;87.13;101995.66;5052315;28;20464;-69
2022/04/10 08:47:25;;;;;;;12.95;2.35;;;;;;;6.97;86.07;101997.50;5052647;28;20116;-69
2022/04/10 08:49:52;;;;;;;8.68;1.92;;;;;;;6.78;84.87;101998.59;5035219;28;20506;-69
2022/04/10 08:52:20;;;;;;;10.43;1.90;;;;;;;6.66;84.50;102007.47;5034664;28;20436;-69
2022/04/10 08:54:46;;;;;;;8.63;1.90;;;;;;;6.71;84.41;102007.41;5035552;28;20434;-69
2022/04/10 08:57:12;;;;;;;10.73;2.42;;;;;;;6.84;82.02;102007.28;5036028;28;20025;-69
2022/04/10 08:59:38;;;;;;;8.00;2.05;;;;;;;7.04;83.94;102007.91;5035553;28;20042;-69
2022/04/10 09:02:04;;;;;;;10.23;2.78;;;;;;;7.17;84.16;102003.38;5054528;28;20037;-69
2022/04/10 09:04:31;;;;;;;10.63;2.33;;;;;;;7.25;84.21;102007.69;5018851;28;20518;-70
2022/04/10 09:07:02;;;;;;;9.82;1.77;;;;;;;7.28;82.94;102007.63;5033166;28;20079;-69
2022/04/10 09:09:28;;;;;;;10.43;2.20;;;;;;;7.28;83.33;102013.78;5053033;28;20100;-69
2022/04/10 09:11:54;;;;;;;9.80;1.90;;;;;;;7.23;82.53;102020.00;5034557;28;20430;-69
2022/04/10 09:14:25;;;;;;;10.20;1.80;;;;;;;7.13;82.06;102017.47;5053219;28;20283;-69
2022/04/10 09:17:16;;;;;;;5.60;1.80;;;;;;;7.16;80.33;102027.09;5034016;28;20036;-69
2022/04/10 09:19:53;;;;;;;7.00;1.63;;;;;;;7.29;81.32;102015.53;5032917;28;20173;-69
2022/04/10 09:22:38;;;;;;;11.27;1.90;;;;;;;7.50;81.37;102023.16;5032284;28;20040;-69
2022/04/10 09:25:05;;;;;;;5.68;1.77;;;;;;;7.64;82.06;102025.59;5019923;28;20033;-69
2022/04/10 09:27:32;;;;;;;9.23;1.70;;;;;;;7.79;81.50;102025.38;5053348;28;20471;-69
2022/04/10 09:29:58;;;;;;;7.72;1.65;;;;;;;7.82;80.82;102035.00;5033739;28;20051;-69
2022/04/10 09:32:39;;;;;;;8.68;1.90;;;;;;;7.80;79.77;102040.28;5018885;28;20390;-69
2022/04/10 09:35:05;;;;;;;7.35;1.75;;;;;;;7.82;80.94;102027.09;5034712;28;20032;-69
2022/04/10 09:37:55;;;;;;;8.98;1.92;;;;;;;7.66;79.02;102035.25;5035212;28;20047;-69
2022/04/10 09:40:26;;;;;;;14.10;2.10;;;;;;;7.45;79.89;102039.91;5037978;28;20032;-69
2022/04/10 09:43:03;;;;;;;9.63;1.70;;;;;;;7.45;80.67;102031.13;5035366;28;20795;-69
2022/04/10 09:45:44;;;;;;;7.97;2.35;;;;;;;7.57;78.26;102035.38;5038686;28;20041;-69
2022/04/10 09:48:31;;;;;;;5.70;1.40;;;;;;;7.75;79.23;102040.38;5052841;28;21509;-69
2022/04/10 09:50:59;;;;;;;7.50;1.85;;;;;;;7.95;80.44;102041.84;5052609;28;20111;-69
2022/04/10 09:53:26;;;;;;;7.03;1.90;;;;;;;8.07;79.03;102030.22;5052925;28;20043;-69
2022/04/10 09:55:57;;;;;;;14.20;2.10;;;;;;;8.01;77.50;102048.81;5022689;28;20033;-69
2022/04/10 09:58:23;;;;;;;3.88;1.65;;;;;;;7.89;76.97;102041.94;5034828;28;20426;-69
2022/04/10 10:00:51;;;;;;;5.28;1.88;;;;;;;7.96;78.05;102046.22;5052405;28;20029;-69
2022/04/10 10:03:17;;;;;;;9.15;1.95;;;;;;;8.10;78.62;102031.94;5034280;28;20063;-70
2022/04/10 10:05:43;;;;;;;5.35;1.73;;;;;;;8.19;77.81;102042.38;5031200;28;20160;-70
2022/04/10 10:08:08;;;;;;;9.68;2.15;;;;;;;8.13;77.17;102045.09;5019580;28;20032;-70
2022/04/10 10:10:36;;;;;;;10.85;2.13;;;;;;;8.04;76.11;102046.13;5045522;28;20040;-70
2022/04/10 10:13:05;;;;;;;9.30;1.70;;;;;;;8.04;76.17;102042.59;5052200;28;20033;-69
2022/04/10 10:15:34;;;;;;;7.65;1.90;;;;;;;8.05;74.76;102041.72;5052618;28;20032;-69
2022/04/10 10:18:06;;;;;;;10.27;1.80;;;;;;;8.07;75.68;102030.22;5034812;28;20052;-70
2022/04/10 10:20:32;;;;;;;6.88;1.63;;;;;;;8.21;75.88;102037.94;5053109;28;20095;-70
2022/04/10 10:23:02;;;;;;;9.23;2.22;;;;;;;8.27;75.71;102043.09;5050886;28;20498;-69
2022/04/10 10:25:33;;;;;;;7.75;1.70;;;;;;;8.24;76.20;102043.13;5051381;28;20025;-69
2022/04/10 10:28:23;;;;;;;8.48;1.70;;;;;;;8.23;75.01;102036.13;5020892;28;20072;-70
2022/04/10 10:31:04;;;;;;;6.88;2.15;;;;;;;8.34;74.68;102038.59;5052547;28;20035;-69
2022/04/10 10:33:30;;;;;;;11.32;2.20;;;;;;;8.31;73.98;102043.94;5052803;28;20448;-69
2022/04/10 10:35:58;;;;;;;11.25;2.00;;;;;;;8.22;74.10;102047.59;5051710;28;20067;-69
2022/04/10 10:38:30;;;;;;;12.00;2.13;;;;;;;8.13;73.08;102045.97;5034673;28;20028;-69
2022/04/10 10:41:17;;;;;;;5.20;1.60;;;;;;;8.07;70.90;102050.47;5052043;28;20104;-69
2022/04/10 10:43:44;;;;;;;11.43;1.77;;;;;;;8.00;73.02;102061.13;5033875;28;20061;-69
2022/04/10 10:46:37;;;;;;;8.98;1.80;;;;;;;7.93;71.76;102059.47;5051803;28;20129;-69
2022/04/10 10:49:16;;;;;;;9.50;1.95;;;;;;;8.03;72.85;102060.19;5034184;28;20128;-69
2022/04/10 10:51:46;;;;;;;9.38;1.70;;;;;;;8.17;73.04;102059.97;5051802;28;20083;-69
2022/04/10 10:54:26;;;;;;;7.45;1.95;;;;;;;8.27;72.11;102056.31;5052555;28;20070;-69
2022/04/10 10:56:51;;;;;;;6.80;2.03;;;;;;;8.26;71.04;102051.03;5051204;28;20110;-69
2022/04/10 10:59:24;;;;;;;6.88;1.83;;;;;;;8.24;71.89;102050.19;5032560;28;20108;-69
2022/04/10 11:02:10;;;;;;;9.20;1.98;;;;;;;8.27;70.03;102064.22;5050313;28;20033;-69
2022/04/10 11:04:52;;;;;;;10.88;1.80;;;;;;;8.23;72.18;102062.50;5049508;28;20115;-69
2022/04/10 11:07:17;;;;;;;10.85;2.35;;;;;;;8.16;72.42;102047.69;5014589;28;20067;-69
2022/04/10 11:09:53;;;;;;;7.88;2.00;;;;;;;8.19;71.96;102039.72;5049868;28;21493;-69
2022/04/10 11:12:21;;;;;;;5.72;1.90;;;;;;;8.27;72.32;102048.38;5049745;28;20053;-69
2022/04/10 11:14:50;;;;;;;11.18;2.10;;;;;;;8.34;72.58;102051.78;5050204;28;20162;-70
2022/04/10 11:17:32;;;;;;;7.00;1.70;;;;;;;8.31;69.92;102057.13;5051573;28;20032;-69
2022/04/10 11:20:03;;;;;;;8.05;2.20;;;;;;;8.27;71.62;102058.94;5051157;28;20059;-69
2022/04/10 11:22:37;;;;;;;6.82;1.98;;;;;;;8.25;70.85;102058.09;5033766;28;20049;-69
2022/04/10 11:25:08;;;;;;;7.93;2.20;;;;;;;8.22;69.81;102068.69;5053234;28;20368;-69
2022/04/10 11:27:42;;;;;;;8.02;2.35;;;;;;;8.18;70.42;102058.22;5051949;28;20039;-68